createdAt,value
2018-10-12T00:00:52.584Z,12.90
2018-10-12T00:03:58.985Z,12.80
2018-10-12T00:07:06.338Z,13.10
2018-10-12T00:10:13.568Z,13.20
2018-10-12T00:13:20.679Z,13.20
2018-10-12T00:16:27.599Z,13.10
2018-10-12T00:19:34.132Z,12.90
2018-10-12T00:22:41.385Z,12.80
2018-10-12T00:25:47.576Z,12.70
2018-10-12T00:28:53.672Z,12.60
2018-10-12T00:32:00.724Z,12.60
2018-10-12T00:35:07.911Z,12.60
2018-10-12T00:38:15.089Z,12.70
2018-10-12T00:41:22.266Z,12.90
2018-10-12T00:44:29.370Z,12.90
2018-10-12T00:47:36.433Z,13.00
2018-10-12T00:50:43.796Z,13.10
2018-10-12T00:53:51.160Z,13.20
2018-10-12T00:56:58.267Z,13.30
2018-10-12T01:00:04.723Z,13.50
2018-10-12T01:03:11.978Z,13.50
2018-10-12T01:06:19.028Z,13.50
2018-10-12T01:09:26.124Z,13.40
2018-10-12T01:12:50.546Z,13.30
2018-10-12T01:15:57.840Z,13.20
2018-10-12T01:19:04.759Z,13.20
2018-10-12T01:22:11.024Z,13.10
2018-10-12T01:25:18.590Z,13.10
2018-10-12T01:28:25.866Z,13.00
2018-10-12T01:31:33.372Z,12.90
2018-10-12T01:34:40.792Z,12.90
2018-10-12T01:37:48.105Z,12.90
2018-10-12T01:40:55.361Z,12.90
2018-10-12T01:44:02.411Z,12.80
2018-10-12T01:47:09.576Z,12.70
2018-10-12T01:50:16.582Z,12.60
2018-10-12T01:53:23.926Z,12.70
2018-10-12T01:56:31.711Z,12.60
2018-10-12T01:59:38.589Z,12.60
2018-10-12T02:02:45.382Z,12.50
2018-10-12T02:05:52.188Z,12.40
2018-10-12T02:08:59.370Z,12.30
2018-10-12T02:12:06.941Z,12.20
2018-10-12T02:15:14.053Z,12.20
2018-10-12T02:18:20.999Z,12.00
2018-10-12T02:21:28.062Z,11.90
2018-10-12T02:24:35.066Z,11.90
2018-10-12T02:27:43.263Z,11.90
2018-10-12T02:30:49.593Z,11.90
2018-10-12T02:33:56.849Z,12.00
2018-10-12T02:37:05.099Z,12.00
2018-10-12T02:40:12.440Z,12.10
2018-10-12T02:43:18.735Z,12.10
2018-10-12T02:46:25.723Z,12.20
2018-10-12T02:49:32.892Z,12.10
2018-10-12T02:52:40.292Z,12.20
2018-10-12T02:55:47.694Z,12.20
2018-10-12T02:58:55.140Z,12.20
2018-10-12T03:02:02.467Z,12.20
2018-10-12T03:05:09.565Z,12.20
2018-10-12T03:08:16.028Z,12.20
2018-10-12T03:11:23.321Z,12.20
2018-10-12T03:14:30.568Z,12.20
2018-10-12T03:17:37.915Z,12.30
2018-10-12T03:20:44.852Z,12.30
2018-10-12T03:23:51.836Z,12.20
2018-10-12T03:26:58.950Z,12.20
2018-10-12T03:30:07.283Z,12.20
2018-10-12T03:33:14.547Z,12.10
2018-10-12T03:36:21.497Z,12.00
2018-10-12T03:39:28.729Z,11.90
2018-10-12T03:42:35.881Z,11.80
2018-10-12T03:45:43.023Z,11.70
2018-10-12T03:48:50.410Z,11.60
2018-10-12T03:51:57.648Z,11.60
2018-10-12T03:55:05.046Z,11.50
2018-10-12T03:58:12.298Z,11.50
2018-10-12T04:01:24.568Z,11.50
2018-10-12T04:04:31.739Z,11.60
2018-10-12T04:07:38.074Z,11.60
2018-10-12T04:10:45.245Z,11.60
2018-10-12T04:13:52.520Z,11.60
2018-10-12T04:16:59.985Z,11.70
2018-10-12T04:20:06.444Z,11.70
2018-10-12T04:23:13.769Z,11.70
2018-10-12T04:26:20.846Z,11.60
2018-10-12T04:29:27.329Z,11.60
2018-10-12T04:32:34.436Z,11.60
2018-10-12T04:35:41.461Z,11.60
2018-10-12T04:39:57.503Z,11.50
2018-10-12T04:43:03.764Z,11.50
2018-10-12T04:46:11.158Z,11.50
2018-10-12T04:49:18.243Z,11.50
2018-10-12T04:52:25.228Z,11.50
2018-10-12T04:55:32.491Z,11.60
2018-10-12T04:58:39.669Z,11.60
2018-10-12T05:01:45.999Z,11.60
2018-10-12T05:04:53.164Z,11.70
2018-10-12T05:08:00.264Z,11.60
2018-10-12T05:11:07.312Z,11.70
2018-10-12T05:14:14.376Z,11.60
2018-10-12T05:17:20.712Z,11.50
2018-10-12T05:20:27.272Z,11.50
2018-10-12T05:23:33.490Z,11.40
2018-10-12T05:26:39.709Z,11.30
2018-10-12T05:29:46.680Z,11.30
2018-10-12T05:32:54.100Z,11.30
2018-10-12T05:36:01.266Z,11.20
2018-10-12T05:39:08.408Z,11.30
2018-10-12T05:42:15.430Z,11.20
2018-10-12T05:45:22.440Z,11.20
2018-10-12T05:48:41.549Z,11.20
2018-10-12T05:51:48.695Z,11.10
2018-10-12T05:54:55.816Z,11.10
2018-10-12T05:58:03.887Z,11.10
2018-10-12T06:01:11.108Z,11.10
2018-10-12T06:04:18.296Z,11.10
2018-10-12T06:07:25.747Z,11.30
2018-10-12T06:10:33.185Z,11.40
2018-10-12T06:13:40.336Z,11.60
2018-10-12T06:16:46.606Z,11.70
2018-10-12T06:19:54.098Z,11.90
2018-10-12T06:23:01.407Z,12.10
2018-10-12T06:26:08.323Z,12.20
2018-10-12T06:29:16.017Z,12.30
2018-10-12T06:32:23.196Z,12.50
2018-10-12T06:35:30.455Z,12.60
2018-10-12T06:38:37.612Z,12.70
2018-10-12T06:41:44.795Z,12.80
2018-10-12T06:44:51.876Z,12.90
2018-10-12T06:47:58.683Z,12.90
2018-10-12T06:51:06.374Z,13.00
2018-10-12T06:54:13.536Z,13.20
2018-10-12T06:57:20.828Z,13.30
2018-10-12T07:00:28.786Z,13.50
2018-10-12T07:03:35.976Z,13.60
2018-10-12T07:06:43.072Z,13.90
2018-10-12T07:09:49.464Z,14.10
2018-10-12T07:12:56.453Z,14.30
2018-10-12T07:16:02.920Z,14.40
2018-10-12T07:19:09.334Z,14.60
2018-10-12T07:22:16.396Z,14.80
2018-10-12T07:25:24.527Z,15.10
2018-10-12T07:28:31.048Z,15.20
2018-10-12T07:31:38.428Z,15.30
2018-10-12T07:34:45.559Z,15.40
2018-10-12T07:37:51.882Z,15.50
2018-10-12T07:40:59.231Z,15.70
2018-10-12T07:44:06.584Z,15.80
2018-10-12T07:47:13.685Z,15.90
2018-10-12T07:50:20.958Z,16.00
2018-10-12T07:53:28.542Z,16.20
2018-10-12T07:56:34.951Z,16.40
2018-10-12T07:59:42.074Z,16.50
2018-10-12T08:02:49.258Z,16.60
2018-10-12T08:05:59.419Z,16.80
2018-10-12T08:09:06.661Z,16.90
2018-10-12T08:12:15.135Z,17.00
2018-10-12T08:15:23.292Z,17.10
2018-10-12T08:18:30.151Z,17.20
2018-10-12T08:21:38.571Z,17.40
2018-10-12T08:24:45.149Z,17.40
2018-10-12T08:27:51.334Z,17.80
2018-10-12T08:30:58.611Z,17.70
2018-10-12T08:34:05.858Z,17.80
2018-10-12T08:37:13.494Z,17.70
2018-10-12T08:40:20.268Z,17.90
2018-10-12T08:43:27.416Z,18.00
2018-10-12T08:46:34.496Z,18.00
2018-10-12T08:49:41.470Z,18.20
2018-10-12T08:52:48.804Z,18.30
2018-10-12T08:56:01.528Z,18.40
2018-10-12T09:02:36.992Z,19.60
2018-10-12T09:05:44.206Z,20.50
2018-10-12T09:08:50.622Z,20.60
2018-10-12T09:11:57.702Z,20.90
2018-10-12T09:15:05.114Z,21.30
2018-10-12T09:18:12.322Z,21.30
2018-10-12T09:21:20.486Z,21.40
2018-10-12T09:24:26.841Z,21.50
2018-10-12T09:27:33.951Z,21.50
2018-10-12T09:30:41.025Z,21.10
2018-10-12T09:33:48.064Z,21.10
2018-10-12T09:36:54.239Z,21.00
2018-10-12T09:40:01.417Z,20.90
2018-10-12T09:43:08.627Z,20.70
2018-10-12T09:46:14.800Z,20.50
2018-10-12T09:49:21.864Z,20.60
2018-10-12T09:52:28.123Z,20.70
2018-10-12T09:55:35.347Z,20.70
2018-10-12T09:58:42.577Z,20.80
2018-10-12T10:01:55.780Z,20.70
2018-10-12T10:05:07.263Z,20.80
2018-10-12T10:08:14.522Z,21.00
2018-10-12T10:11:21.573Z,21.10
2018-10-12T10:14:27.825Z,21.10
2018-10-12T10:17:35.002Z,21.30
2018-10-12T10:20:42.242Z,21.20
2018-10-12T10:23:28.400Z,21.30
2018-10-12T10:25:58.324Z,21.30
2018-10-12T10:28:28.291Z,21.20
2018-10-12T10:30:58.222Z,21.20
2018-10-12T10:33:28.239Z,21.50
2018-10-12T10:35:58.262Z,21.50
2018-10-12T10:38:28.360Z,21.60
2018-10-12T10:40:58.337Z,21.60
2018-10-12T10:43:28.441Z,21.70
2018-10-12T10:45:58.649Z,21.60
2018-10-12T10:48:28.574Z,21.60
2018-10-12T10:50:58.919Z,21.70
2018-10-12T10:53:28.905Z,21.80
2018-10-12T10:55:58.787Z,21.80
2018-10-12T10:58:28.796Z,22.00
2018-10-12T11:00:58.830Z,22.00
2018-10-12T11:03:28.806Z,22.20
2018-10-12T11:05:58.860Z,22.20
2018-10-12T11:08:28.817Z,22.00
2018-10-12T11:10:58.728Z,22.10
2018-10-12T11:13:28.667Z,22.20
2018-10-12T11:15:58.807Z,22.10
2018-10-12T11:18:28.828Z,22.10
2018-10-12T11:20:58.755Z,22.10
2018-10-12T11:23:28.700Z,22.00
2018-10-12T11:25:58.782Z,22.10
2018-10-12T11:28:28.836Z,22.10
2018-10-12T11:30:58.824Z,22.10
2018-10-12T11:33:28.782Z,22.10
2018-10-12T11:35:58.703Z,22.10
2018-10-12T11:38:28.614Z,22.10
2018-10-12T11:40:58.526Z,22.20
2018-10-12T11:43:33.646Z,22.40
2018-10-12T11:46:03.732Z,22.40
2018-10-12T11:48:33.769Z,22.40
2018-10-12T11:51:03.707Z,22.40
2018-10-12T11:53:33.679Z,22.40
2018-10-12T11:56:03.763Z,22.30
2018-10-12T11:58:33.759Z,22.30
2018-10-12T12:01:03.774Z,22.40
2018-10-12T12:03:34.804Z,22.40
2018-10-12T12:06:04.755Z,22.50
2018-10-12T12:08:34.980Z,22.50
2018-10-12T12:11:05.981Z,22.50
2018-10-12T12:13:35.936Z,22.60
2018-10-12T12:16:05.855Z,22.50
2018-10-12T12:18:35.720Z,22.60
2018-10-12T12:21:05.627Z,22.60
2018-10-12T12:23:36.259Z,22.70
2018-10-12T12:26:06.461Z,22.70
2018-10-12T12:28:36.473Z,22.60
2018-10-12T12:31:06.448Z,22.60
2018-10-12T12:33:36.410Z,22.70
2018-10-12T12:36:07.742Z,22.80
2018-10-12T12:38:37.624Z,22.80
2018-10-12T12:41:07.625Z,22.70
2018-10-12T12:43:38.476Z,23.00
2018-10-12T12:46:08.665Z,22.90
2018-10-12T12:48:39.101Z,23.00
2018-10-12T12:51:09.947Z,23.10
2018-10-12T12:53:39.940Z,23.10
2018-10-12T12:56:10.545Z,22.90
2018-10-12T12:58:40.974Z,23.00
2018-10-12T13:01:11.300Z,23.10
2018-10-12T13:03:41.590Z,23.00
2018-10-12T13:06:11.627Z,22.90
2018-10-12T13:08:41.816Z,22.80
2018-10-12T13:11:11.829Z,22.90
2018-10-12T13:13:41.815Z,22.80
2018-10-12T13:16:11.820Z,22.90
2018-10-12T13:18:41.750Z,22.80
2018-10-12T13:21:11.673Z,22.80
2018-10-12T13:23:41.602Z,22.80
2018-10-12T13:26:11.640Z,22.90
2018-10-12T13:28:41.440Z,23.10
2018-10-12T13:31:11.433Z,23.00
2018-10-12T13:33:41.799Z,23.00
2018-10-12T13:36:11.808Z,23.00
2018-10-12T13:38:41.720Z,23.00
2018-10-12T13:41:11.700Z,23.00
2018-10-12T13:43:41.723Z,23.10
2018-10-12T13:46:11.647Z,23.10
2018-10-12T13:48:43.029Z,23.00
2018-10-12T13:51:14.007Z,22.90
2018-10-12T13:53:44.113Z,22.90
2018-10-12T13:56:14.124Z,23.00
2018-10-12T13:58:44.211Z,22.90
2018-10-12T14:01:14.187Z,23.00
2018-10-12T14:03:46.969Z,23.20
2018-10-12T14:06:17.110Z,23.20
2018-10-12T14:08:47.100Z,23.20
2018-10-12T14:11:17.227Z,23.20
2018-10-12T14:13:47.136Z,23.10
2018-10-12T14:16:17.303Z,23.20
2018-10-12T14:18:47.351Z,23.20
2018-10-12T14:21:17.280Z,23.10
2018-10-12T14:23:47.216Z,23.10
2018-10-12T14:26:17.189Z,23.10
2018-10-12T14:28:48.653Z,23.20
2018-10-12T14:31:18.919Z,23.10
2018-10-12T14:33:48.919Z,23.10
2018-10-12T14:36:18.899Z,23.10
2018-10-12T14:38:48.933Z,23.10
2018-10-12T14:41:18.908Z,23.00
2018-10-12T14:43:49.042Z,23.10
2018-10-12T14:46:19.733Z,22.90
2018-10-12T14:48:49.776Z,22.80
2018-10-12T14:51:19.747Z,22.70
2018-10-12T14:53:49.675Z,22.60
2018-10-12T14:56:19.743Z,22.40
2018-10-12T14:58:49.754Z,22.40
2018-10-12T15:01:19.586Z,22.30
2018-10-12T15:03:49.645Z,22.20
2018-10-12T15:06:19.569Z,22.10
2018-10-12T15:08:49.508Z,22.00
2018-10-12T15:11:19.467Z,22.00
2018-10-12T15:13:49.407Z,22.20
2018-10-12T15:16:19.486Z,22.10
2018-10-12T15:18:49.376Z,22.00
2018-10-12T15:21:19.572Z,22.00
2018-10-12T15:23:49.550Z,21.90
2018-10-12T15:26:19.537Z,21.60
2018-10-12T15:28:49.454Z,21.50
2018-10-12T15:31:19.551Z,21.30
2018-10-12T15:33:49.578Z,21.20
2018-10-12T15:36:19.565Z,21.30
2018-10-12T15:38:49.468Z,21.10
2018-10-12T15:41:19.456Z,21.10
2018-10-12T15:43:49.440Z,21.00
2018-10-12T15:46:19.417Z,21.00
2018-10-12T15:48:49.365Z,20.80
2018-10-12T15:51:19.528Z,20.80
2018-10-12T15:53:49.509Z,20.60
2018-10-12T15:56:19.505Z,20.60
2018-10-12T15:58:49.446Z,20.40
2018-10-12T16:01:19.372Z,20.20
2018-10-12T16:03:49.373Z,20.00
2018-10-12T16:06:19.786Z,19.70
2018-10-12T16:08:49.727Z,19.40
2018-10-12T16:11:19.836Z,19.20
2018-10-12T16:13:49.836Z,19.00
2018-10-12T16:16:19.838Z,18.90
2018-10-12T16:18:49.795Z,18.70
2018-10-12T16:21:19.799Z,18.50
2018-10-12T16:23:51.160Z,18.40
2018-10-12T16:26:22.741Z,18.30
2018-10-12T16:28:52.797Z,18.20
2018-10-12T16:31:22.702Z,18.20
2018-10-12T16:33:52.689Z,18.00
2018-10-12T16:36:22.705Z,17.90
2018-10-12T16:38:52.678Z,17.90
2018-10-12T16:41:22.561Z,17.70
2018-10-12T16:43:52.798Z,17.60
2018-10-12T16:46:22.855Z,17.60
2018-10-12T16:48:52.735Z,17.50
2018-10-12T16:51:22.670Z,17.40
2018-10-12T16:53:53.328Z,17.40
2018-10-12T16:56:23.315Z,17.30
2018-10-12T16:58:53.471Z,17.30
2018-10-12T17:01:23.500Z,17.30
2018-10-12T17:03:53.580Z,17.20
2018-10-12T17:06:23.495Z,17.20
2018-10-12T17:08:53.423Z,17.10
2018-10-12T17:11:23.441Z,17.10
2018-10-12T17:13:53.512Z,17.00
2018-10-12T17:16:23.504Z,16.90
2018-10-12T17:18:53.640Z,16.80
2018-10-12T17:21:23.587Z,16.70
2018-10-12T17:23:53.545Z,16.70
2018-10-12T17:26:23.549Z,16.70
2018-10-12T17:28:53.522Z,16.70
2018-10-12T17:31:23.758Z,16.80
2018-10-12T17:33:53.799Z,16.80
2018-10-12T17:36:23.726Z,16.80
2018-10-12T17:38:53.722Z,16.80
2018-10-12T17:41:23.742Z,16.70
2018-10-12T17:43:53.781Z,16.70
2018-10-12T17:46:24.171Z,16.70
2018-10-12T17:48:54.126Z,16.70
2018-10-12T17:51:24.200Z,16.60
2018-10-12T17:53:54.293Z,16.60
2018-10-12T17:56:24.320Z,16.60
2018-10-12T17:58:54.399Z,16.70
2018-10-12T18:01:24.352Z,16.70
2018-10-12T18:03:54.370Z,16.60
2018-10-12T18:06:24.325Z,16.50
2018-10-12T18:08:54.265Z,16.40
2018-10-12T18:11:24.229Z,16.30
2018-10-12T18:13:54.607Z,16.10
2018-10-12T18:16:24.481Z,16.10
2018-10-12T18:18:54.516Z,15.90
2018-10-12T18:21:24.463Z,15.90
2018-10-12T18:23:54.479Z,15.90
2018-10-12T18:26:24.382Z,15.90
2018-10-12T18:28:54.296Z,15.80
2018-10-12T18:31:24.371Z,15.80
2018-10-12T18:33:54.331Z,15.80
2018-10-12T18:36:24.546Z,15.70
2018-10-12T18:38:54.932Z,15.70
2018-10-12T18:41:24.870Z,15.60
2018-10-12T18:43:55.119Z,15.50
2018-10-12T18:46:25.100Z,15.40
2018-10-12T18:48:55.052Z,15.40
2018-10-12T18:51:25.043Z,15.40
2018-10-12T18:53:55.019Z,15.30
2018-10-12T18:56:24.858Z,15.30
2018-10-12T18:58:54.822Z,15.30
2018-10-12T19:01:24.833Z,15.30
2018-10-12T19:03:54.934Z,15.30
2018-10-12T19:06:24.872Z,15.20
2018-10-12T19:08:55.029Z,15.20
2018-10-12T19:11:25.190Z,15.20
2018-10-12T19:13:55.144Z,15.20
2018-10-12T19:16:25.096Z,15.20
2018-10-12T19:18:55.104Z,15.30
2018-10-12T19:21:25.161Z,15.30
2018-10-12T19:23:55.239Z,15.20
2018-10-12T19:26:25.216Z,15.20
2018-10-12T19:28:55.192Z,15.10
2018-10-12T19:31:25.284Z,15.00
2018-10-12T19:33:55.122Z,15.00
2018-10-12T19:36:25.147Z,14.90
2018-10-12T19:38:55.154Z,14.80
2018-10-12T19:41:25.141Z,14.80
2018-10-12T19:43:55.126Z,14.90
2018-10-12T19:46:25.089Z,15.00
2018-10-12T19:48:54.998Z,15.00
2018-10-12T19:51:25.039Z,15.00
2018-10-12T19:53:55.073Z,15.00
2018-10-12T19:56:25.155Z,15.10
2018-10-12T19:58:55.251Z,15.10
2018-10-12T20:01:25.494Z,15.20
2018-10-12T20:03:55.507Z,15.30
2018-10-12T20:06:25.488Z,15.30
2018-10-12T20:08:55.439Z,15.20
2018-10-12T20:11:25.377Z,15.10
2018-10-12T20:13:55.370Z,15.00
2018-10-12T20:16:25.571Z,15.00
2018-10-12T20:18:55.436Z,15.10
2018-10-12T20:21:25.429Z,15.20
2018-10-12T20:23:55.446Z,15.20
2018-10-12T20:26:25.415Z,15.30
2018-10-12T20:28:55.359Z,15.20
2018-10-12T20:31:25.675Z,15.10
2018-10-12T20:33:55.574Z,15.10
2018-10-12T20:36:26.126Z,15.00
2018-10-12T20:38:56.118Z,15.10
2018-10-12T20:41:26.309Z,15.10
2018-10-12T20:43:56.251Z,15.10
2018-10-12T20:46:26.212Z,15.10
2018-10-12T20:48:56.277Z,15.30
2018-10-12T20:51:26.775Z,15.40
2018-10-12T20:53:56.849Z,15.40
2018-10-12T20:56:26.932Z,15.30
2018-10-12T20:58:56.849Z,15.30
2018-10-12T21:01:26.903Z,15.20
2018-10-12T21:03:56.891Z,15.20
2018-10-12T21:06:27.082Z,15.30
2018-10-12T21:08:57.778Z,15.30
2018-10-12T21:11:28.086Z,15.50
2018-10-12T21:13:58.781Z,15.50
2018-10-12T21:16:29.276Z,15.60
2018-10-12T21:18:59.926Z,15.50
2018-10-12T21:21:30.777Z,15.50
2018-10-12T21:24:01.212Z,15.60
2018-10-12T21:26:31.915Z,15.60
2018-10-12T21:29:02.119Z,15.50
2018-10-12T21:31:32.223Z,15.50
2018-10-12T21:34:02.409Z,15.50
2018-10-12T21:36:32.738Z,15.40
2018-10-12T21:39:02.911Z,15.20
2018-10-12T21:41:32.826Z,15.10
2018-10-12T21:44:02.848Z,15.00
2018-10-12T21:46:32.939Z,14.90
2018-10-12T21:49:02.808Z,14.80
2018-10-12T21:51:32.818Z,14.60
2018-10-12T21:54:02.794Z,14.60
2018-10-12T21:56:32.708Z,14.50
2018-10-12T21:59:02.720Z,14.50
2018-10-12T22:01:32.733Z,14.50
2018-10-12T22:04:02.794Z,14.60
2018-10-12T22:06:32.687Z,14.60
2018-10-12T22:09:05.421Z,14.70
2018-10-12T22:11:35.391Z,14.90
2018-10-12T22:14:05.792Z,14.80
2018-10-12T22:16:35.669Z,14.70
2018-10-12T22:19:06.487Z,14.70
2018-10-12T22:21:36.462Z,14.70
2018-10-12T22:24:07.220Z,14.80
2018-10-12T22:26:37.156Z,14.90
2018-10-12T22:29:07.162Z,15.00
2018-10-12T22:31:37.152Z,15.00
2018-10-12T22:34:07.246Z,15.00
2018-10-12T22:36:37.176Z,15.00
2018-10-12T22:39:09.124Z,15.00
2018-10-12T22:41:39.154Z,15.00
2018-10-12T22:44:09.000Z,14.90
2018-10-12T22:46:38.941Z,14.80
2018-10-12T22:49:08.872Z,14.60
2018-10-12T22:51:39.616Z,14.50
2018-10-12T22:54:09.588Z,14.40
2018-10-12T22:56:39.529Z,14.30
2018-10-12T22:59:09.549Z,14.30
2018-10-12T23:01:39.480Z,14.30
2018-10-12T23:04:09.360Z,14.30
2018-10-12T23:06:39.250Z,14.30
2018-10-12T23:09:10.352Z,14.30
2018-10-12T23:11:40.460Z,14.20
2018-10-12T23:14:10.688Z,14.20
2018-10-12T23:16:40.622Z,14.10
2018-10-12T23:19:10.661Z,14.10
2018-10-12T23:21:40.510Z,14.00
2018-10-12T23:24:10.434Z,13.90
2018-10-12T23:26:40.458Z,13.80
2018-10-12T23:29:10.475Z,13.70
2018-10-12T23:31:40.440Z,13.60
2018-10-12T23:34:10.691Z,13.50
2018-10-12T23:36:40.696Z,13.60
2018-10-12T23:39:10.685Z,13.50
2018-10-12T23:41:40.655Z,13.50
2018-10-12T23:44:10.844Z,13.50
2018-10-12T23:46:40.697Z,13.50
2018-10-12T23:49:10.708Z,13.50
2018-10-12T23:51:40.661Z,13.40
2018-10-12T23:54:10.698Z,13.40
2018-10-12T23:56:40.607Z,13.40
2018-10-12T23:59:10.506Z,13.30
